Time;durP1;ratioP1;P1;durP2;ratioP2;P2;SDS_P1;SDS_P2;PMS_P1;PMS_P2;Temp;Humidity;BMP_temperature;BMP_pressure;BME280_temperature;BME280_humidity;BME280_pressure;Samples;Min_cycle;Max_cycle;Signal;HPM_P1;HPM_P2
2023/05/27 00:00:13;;;;;;;9.70;5.60;;;;;;;;;;4982304;28;20096;-45
2023/05/27 00:02:39;;;;;;;11.55;5.97;;;;;;;;;;4986858;28;20050;-46
2023/05/27 00:05:04;;;;;;;9.93;5.75;;;;;;;;;;4980082;28;20462;-43
2023/05/27 00:07:30;;;;;;;7.53;5.80;;;;;;;;;;4980516;28;20039;-48
2023/05/27 00:09:56;;;;;;;8.63;5.90;;;;;;;;;;4982974;28;20138;-47
2023/05/27 00:12:22;;;;;;;9.82;5.97;;;;;;;;;;4983923;28;20487;-45
2023/05/27 00:14:47;;;;;;;16.00;5.78;;;;;;;;;;4984422;28;20038;-45
2023/05/27 00:17:13;;;;;;;9.90;6.15;;;;;;;;;;4982602;28;20394;-43
2023/05/27 00:19:39;;;;;;;9.93;5.70;;;;;;;;;;4984197;28;20443;-49
2023/05/27 00:22:05;;;;;;;8.48;5.55;;;;;;;;;;4980800;28;21529;-45
2023/05/27 00:24:30;;;;;;;13.82;5.88;;;;;;;;;;4982768;28;20069;-45
2023/05/27 00:26:56;;;;;;;12.00;5.93;;;;;;;;;;4980908;28;20034;-45
2023/05/27 00:29:21;;;;;;;14.30;6.30;;;;;;;;;;4982358;28;20513;-46
2023/05/27 00:31:47;;;;;;;13.43;6.70;;;;;;;;;;4981191;28;20170;-44
2023/05/27 00:34:12;;;;;;;8.38;6.63;;;;;;;;;;4983587;28;20022;-46
2023/05/27 00:36:38;;;;;;;8.93;5.35;;;;;;;;;;4977937;28;20042;-45
2023/05/27 00:39:05;;;;;;;10.55;5.82;;;;;;;;;;4982724;28;20018;-47
2023/05/27 00:41:30;;;;;;;11.45;6.13;;;;;;;;;;4981305;28;20038;-48
2023/05/27 00:43:56;;;;;;;15.57;6.32;;;;;;;;;;4982686;28;20546;-47
2023/05/27 00:46:22;;;;;;;9.52;5.68;;;;;;;;;;4983742;28;20062;-44
2023/05/27 00:48:48;;;;;;;10.90;5.65;;;;;;;;;;4983731;28;20034;-48
2023/05/27 00:51:14;;;;;;;8.10;5.40;;;;;;;;;;4979663;28;20546;-44
2023/05/27 00:53:41;;;;;;;13.77;5.70;;;;;;;;;;4983821;28;20038;-45
2023/05/27 00:56:07;;;;;;;7.88;5.70;;;;;;;;;;4984377;28;20476;-48
2023/05/27 00:58:34;;;;;;;15.00;5.88;;;;;;;;;;4989535;28;20507;-46
2023/05/27 01:00:59;;;;;;;9.70;5.65;;;;;;;;;;4987786;28;20046;-47
2023/05/27 01:03:25;;;;;;;12.73;5.75;;;;;;;;;;4991409;28;20375;-46
2023/05/27 01:05:57;;;;;;;11.52;5.93;;;;;;;;;;4987342;28;20050;-48
2023/05/27 01:08:37;;;;;;;21.05;6.40;;;;;;;;;;4984917;28;20027;-46
2023/05/27 01:11:07;;;;;;;17.00;5.82;;;;;;;;;;4984962;28;20410;-48
2023/05/27 01:13:38;;;;;;;16.75;5.70;;;;;;;;;;4989632;28;20062;-45
2023/05/27 01:16:11;;;;;;;8.82;5.82;;;;;;;;;;4988804;28;20042;-48
2023/05/27 01:18:40;;;;;;;14.20;6.07;;;;;;;;;;4987416;28;20107;-48
2023/05/27 01:21:09;;;;;;;9.20;5.78;;;;;;;;;;4983461;28;20508;-48
2023/05/27 01:23:38;;;;;;;7.18;5.60;;;;;;;;;;4985534;28;20039;-50
2023/05/27 01:26:06;;;;;;;9.25;5.88;;;;;;;;;;4983418;28;20096;-46
2023/05/27 01:28:32;;;;;;;15.70;6.35;;;;;;;;;;4989093;28;20053;-50
2023/05/27 01:31:05;;;;;;;10.80;5.97;;;;;;;;;;4986648;28;20693;-46
2023/05/27 01:33:35;;;;;;;13.50;5.82;;;;;;;;;;4985982;28;20511;-50
2023/05/27 01:36:07;;;;;;;9.70;5.72;;;;;;;;;;4987950;28;20662;-49
2023/05/27 01:38:33;;;;;;;;;;;;;;;;;;4986871;28;20031;-47
2023/05/27 01:40:59;;;;;;;11.88;6.32;;;;;;;;;;4983948;28;20279;-51
2023/05/27 01:43:26;;;;;;;9.27;5.88;;;;;;;;;;4987032;28;20041;-45
2023/05/27 01:45:51;;;;;;;11.18;6.20;;;;;;;;;;4984821;28;20137;-51
2023/05/27 01:48:19;;;;;;;15.85;6.55;;;;;;;;;;4983997;28;20113;-51
2023/05/27 01:50:44;;;;;;;12.43;6.15;;;;;;;;;;4984576;28;20526;-51
2023/05/27 01:53:11;;;;;;;14.75;6.20;;;;;;;;;;4985723;28;20038;-48
2023/05/27 01:55:37;;;;;;;9.30;6.22;;;;;;;;;;4982644;28;20026;-44
2023/05/27 01:58:03;;;;;;;13.75;6.00;;;;;;;;;;4984966;28;20033;-49
2023/05/27 02:00:29;;;;;;;14.10;6.60;;;;;;;;;;4986683;28;20047;-49
2023/05/27 02:02:55;;;;;;;14.38;5.97;;;;;;;;;;4985854;28;20029;-45
2023/05/27 02:05:20;;;;;;;9.88;6.18;;;;;;;;;;4984838;28;20038;-41
2023/05/27 02:07:45;;;;;;;10.85;5.65;;;;;;;;;;4983936;28;20026;-43
2023/05/27 02:10:11;;;;;;;12.23;6.03;;;;;;;;;;4988773;28;20035;-44
2023/05/27 02:12:36;;;;;;;10.77;6.10;;;;;;;;;;4987100;28;20041;-44
2023/05/27 02:15:03;;;;;;;18.35;6.03;;;;;;;;;;4985758;28;20022;-45
2023/05/27 02:17:28;;;;;;;10.43;7.30;;;;;;;;;;4985922;28;20046;-47
2023/05/27 02:19:55;;;;;;;13.73;6.13;;;;;;;;;;4985054;28;20431;-42
2023/05/27 02:22:20;;;;;;;11.13;6.13;;;;;;;;;;4982749;28;20120;-44
2023/05/27 02:24:46;;;;;;;12.15;6.18;;;;;;;;;;4983493;28;20057;-43
2023/05/27 02:27:11;;;;;;;9.38;5.95;;;;;;;;;;4984175;28;20034;-44
2023/05/27 02:29:37;;;;;;;14.65;5.93;;;;;;;;;;4985082;28;20034;-43
2023/05/27 02:32:02;;;;;;;10.45;6.32;;;;;;;;;;4983105;28;20057;-42
2023/05/27 02:34:27;;;;;;;11.35;6.55;;;;;;;;;;4985861;28;20034;-44
2023/05/27 02:36:53;;;;;;;10.00;6.53;;;;;;;;;;4985647;28;20031;-42
2023/05/27 02:39:18;;;;;;;9.30;5.97;;;;;;;;;;4983510;28;20048;-43
2023/05/27 02:41:44;;;;;;;11.45;6.03;;;;;;;;;;4987079;28;20037;-45
2023/05/27 02:44:09;;;;;;;14.27;5.97;;;;;;;;;;4986813;28;20444;-43
2023/05/27 02:46:34;;;;;;;12.10;6.50;;;;;;;;;;4984552;28;20045;-48
2023/05/27 02:49:00;;;;;;;10.98;6.60;;;;;;;;;;4984433;28;20022;-44
2023/05/27 02:51:28;;;;;;;16.70;6.70;;;;;;;;;;4983891;28;20078;-45
2023/05/27 02:53:53;;;;;;;16.05;6.65;;;;;;;;;;4987125;28;20050;-49
2023/05/27 02:56:19;;;;;;;13.82;6.63;;;;;;;;;;4983315;28;20116;-45
2023/05/27 02:58:45;;;;;;;9.27;6.50;;;;;;;;;;4983492;28;20037;-51
2023/05/27 03:01:10;;;;;;;12.95;6.65;;;;;;;;;;4984405;28;20539;-42
2023/05/27 03:03:35;;;;;;;11.57;6.22;;;;;;;;;;4983042;28;20039;-43
2023/05/27 03:06:01;;;;;;;11.18;6.32;;;;;;;;;;4986127;28;20047;-42
2023/05/27 03:08:26;;;;;;;12.43;7.28;;;;;;;;;;4983902;28;20026;-43
2023/05/27 03:10:51;;;;;;;11.82;6.32;;;;;;;;;;4985880;28;20054;-42
2023/05/27 03:13:17;;;;;;;11.82;6.80;;;;;;;;;;4980564;28;20483;-43
2023/05/27 03:15:42;;;;;;;12.88;6.55;;;;;;;;;;4984657;28;20124;-43
2023/05/27 03:18:08;;;;;;;8.68;6.10;;;;;;;;;;4982344;28;20117;-48
2023/05/27 03:20:33;;;;;;;10.77;6.50;;;;;;;;;;4985845;28;20032;-48
2023/05/27 03:22:58;;;;;;;9.45;6.15;;;;;;;;;;4982870;28;20085;-43
2023/05/27 03:25:24;;;;;;;10.77;6.15;;;;;;;;;;4982626;28;20703;-45
2023/05/27 03:27:49;;;;;;;17.35;6.95;;;;;;;;;;4983126;28;20102;-43
2023/05/27 03:30:15;;;;;;;11.18;6.30;;;;;;;;;;4980939;28;20038;-43
2023/05/27 03:32:40;;;;;;;14.45;5.90;;;;;;;;;;4984734;28;20518;-44
2023/05/27 03:35:06;;;;;;;14.90;6.22;;;;;;;;;;4985761;28;20053;-46
2023/05/27 03:37:32;;;;;;;11.32;5.60;;;;;;;;;;4985843;28;20026;-42
2023/05/27 03:39:57;;;;;;;14.50;6.10;;;;;;;;;;4980274;28;20113;-44
2023/05/27 03:42:23;;;;;;;14.25;6.38;;;;;;;;;;4985553;28;20043;-42
2023/05/27 03:44:48;;;;;;;11.30;5.53;;;;;;;;;;4985560;28;20034;-42
2023/05/27 03:47:17;;;;;;;11.57;5.68;;;;;;;;;;4981606;28;20089;-43
2023/05/27 03:49:42;;;;;;;9.00;5.85;;;;;;;;;;4986084;28;20375;-46
2023/05/27 03:52:08;;;;;;;13.73;6.45;;;;;;;;;;4985619;28;20049;-42
2023/05/27 03:54:33;;;;;;;8.38;5.55;;;;;;;;;;4983797;28;20387;-43
2023/05/27 03:56:58;;;;;;;10.60;5.57;;;;;;;;;;4981012;28;20035;-42
2023/05/27 03:59:24;;;;;;;7.22;4.97;;;;;;;;;;4982928;28;20033;-42
2023/05/27 04:01:49;;;;;;;9.13;5.18;;;;;;;;;;4983634;28;20038;-43
2023/05/27 04:04:14;;;;;;;11.07;6.10;;;;;;;;;;4982913;28;20429;-43
2023/05/27 04:06:41;;;;;;;18.20;5.85;;;;;;;;;;4983736;28;20042;-45
2023/05/27 04:09:07;;;;;;;10.73;4.90;;;;;;;;;;4983290;28;20172;-44
2023/05/27 04:11:32;;;;;;;9.73;5.40;;;;;;;;;;4983563;28;20118;-43
2023/05/27 04:13:57;;;;;;;13.27;5.95;;;;;;;;;;4979415;28;20057;-45
2023/05/27 04:16:24;;;;;;;11.52;5.60;;;;;;;;;;4982788;28;20101;-42
2023/05/27 04:18:51;;;;;;;12.15;5.28;;;;;;;;;;4983111;28;20031;-45
2023/05/27 04:21:16;;;;;;;8.77;5.30;;;;;;;;;;4982461;28;20062;-46
2023/05/27 04:23:42;;;;;;;10.88;5.63;;;;;;;;;;4982774;28;20034;-43
2023/05/27 04:26:07;;;;;;;8.98;5.85;;;;;;;;;;4977910;28;20074;-45
2023/05/27 04:28:34;;;;;;;7.85;4.82;;;;;;;;;;4985733;28;20026;-44
2023/05/27 04:30:59;;;;;;;13.13;5.65;;;;;;;;;;4982297;28;20372;-42
2023/05/27 04:33:25;;;;;;;11.77;5.57;;;;;;;;;;4984054;28;20033;-42
2023/05/27 04:35:53;;;;;;;12.50;5.50;;;;;;;;;;4984525;28;20062;-43
2023/05/27 04:38:20;;;;;;;11.45;6.05;;;;;;;;;;4982314;28;20054;-43
2023/05/27 04:40:52;;;;;;;8.50;5.65;;;;;;;;;;4980209;28;20148;-48
2023/05/27 04:43:18;;;;;;;15.43;5.50;;;;;;;;;;4982277;28;20058;-46
2023/05/27 04:45:44;;;;;;;12.98;5.70;;;;;;;;;;4978773;28;20042;-46
2023/05/27 04:48:10;;;;;;;13.13;7.13;;;;;;;;;;4981490;28;20471;-45
2023/05/27 04:50:35;;;;;;;9.55;5.50;;;;;;;;;;4982042;28;20035;-43
2023/05/27 04:53:02;;;;;;;14.35;4.88;;;;;;;;;;4982545;28;20023;-45
2023/05/27 04:55:28;;;;;;;12.27;5.65;;;;;;;;;;4982298;28;20387;-51
2023/05/27 04:57:53;;;;;;;11.75;5.70;;;;;;;;;;4983668;28;20034;-43
2023/05/27 05:00:23;;;;;;;14.32;5.65;;;;;;;;;;4984853;28;20031;-42
2023/05/27 05:02:48;;;;;;;10.73;5.55;;;;;;;;;;4985457;28;20676;-45
2023/05/27 05:05:14;;;;;;;7.60;4.72;;;;;;;;;;4979770;28;20039;-46
2023/05/27 05:07:41;;;;;;;12.85;5.60;;;;;;;;;;4985548;28;20038;-43
2023/05/27 05:10:08;;;;;;;10.85;5.53;;;;;;;;;;4983467;28;20105;-46
2023/05/27 05:12:35;;;;;;;10.15;4.88;;;;;;;;;;4984455;28;20042;-44
2023/05/27 05:15:01;;;;;;;11.75;4.80;;;;;;;;;;4981585;28;20084;-46
2023/05/27 05:17:26;;;;;;;10.18;4.75;;;;;;;;;;4981835;28;20172;-45
2023/05/27 05:19:52;;;;;;;9.70;5.10;;;;;;;;;;4982630;28;20391;-46
2023/05/27 05:22:19;;;;;;;11.00;4.82;;;;;;;;;;4984283;28;20780;-50
2023/05/27 05:24:47;;;;;;;18.17;5.10;;;;;;;;;;4977067;28;20084;-47
2023/05/27 05:27:12;;;;;;;15.00;4.88;;;;;;;;;;4978962;28;20050;-46
2023/05/27 05:29:38;;;;;;;12.70;5.00;;;;;;;;;;4980903;28;20027;-51
2023/05/27 05:32:04;;;;;;;9.75;4.57;;;;;;;;;;4983261;28;20038;-50
2023/05/27 05:34:29;;;;;;;8.48;4.55;;;;;;;;;;4983843;28;20364;-48
2023/05/27 05:36:55;;;;;;;8.38;4.38;;;;;;;;;;4981520;28;20050;-43
2023/05/27 05:39:20;;;;;;;12.20;5.18;;;;;;;;;;4983785;28;20038;-44
2023/05/27 05:41:46;;;;;;;12.52;5.18;;;;;;;;;;4985567;28;20448;-44
2023/05/27 05:44:12;;;;;;;8.02;4.28;;;;;;;;;;4985334;28;20487;-45
2023/05/27 05:46:37;;;;;;;13.60;4.90;;;;;;;;;;4985849;28;20053;-46
2023/05/27 05:49:02;;;;;;;10.43;4.60;;;;;;;;;;4986641;28;20700;-49
2023/05/27 05:51:28;;;;;;;13.23;4.65;;;;;;;;;;4986753;28;20084;-45
2023/05/27 05:53:53;;;;;;;10.02;4.13;;;;;;;;;;4984828;28;20039;-46
2023/05/27 05:56:18;;;;;;;13.00;4.63;;;;;;;;;;4985196;28;20428;-46
2023/05/27 05:58:44;;;;;;;9.18;5.07;;;;;;;;;;4985131;28;20030;-47
2023/05/27 06:01:09;;;;;;;10.77;4.60;;;;;;;;;;4986437;28;20753;-43
2023/05/27 06:03:36;;;;;;;12.15;4.70;;;;;;;;;;4986703;28;20438;-45
2023/05/27 06:06:02;;;;;;;16.80;5.63;;;;;;;;;;4983356;28;20105;-45
2023/05/27 06:08:28;;;;;;;14.45;4.55;;;;;;;;;;4985666;28;20564;-45
2023/05/27 06:10:53;;;;;;;15.80;4.45;;;;;;;;;;4983888;28;20050;-43
2023/05/27 06:13:18;;;;;;;13.85;4.30;;;;;;;;;;4983428;28;20032;-43
2023/05/27 06:15:44;;;;;;;14.35;4.60;;;;;;;;;;4983252;28;20463;-46
2023/05/27 06:18:09;;;;;;;8.25;4.40;;;;;;;;;;4984699;28;20047;-46
2023/05/27 06:20:34;;;;;;;7.03;3.80;;;;;;;;;;4984083;28;20475;-48
2023/05/27 06:23:00;;;;;;;12.20;4.57;;;;;;;;;;4985306;28;20037;-48
2023/05/27 06:25:25;;;;;;;10.80;4.20;;;;;;;;;;4981807;28;20811;-44
2023/05/27 06:27:50;;;;;;;9.43;3.80;;;;;;;;;;4986090;28;20026;-43
2023/05/27 06:30:16;;;;;;;16.23;4.70;;;;;;;;;;4981877;28;20064;-44
2023/05/27 06:32:41;;;;;;;12.43;4.25;;;;;;;;;;4989248;28;20166;-49
2023/05/27 06:35:07;;;;;;;9.10;3.97;;;;;;;;;;4983237;28;20117;-48
2023/05/27 06:37:32;;;;;;;15.85;4.50;;;;;;;;;;4985079;28;20030;-43
2023/05/27 06:39:58;;;;;;;12.68;4.05;;;;;;;;;;4981055;28;20034;-45
2023/05/27 06:42:23;;;;;;;12.15;3.88;;;;;;;;;;4985872;28;20178;-46
2023/05/27 06:44:49;;;;;;;9.35;3.38;;;;;;;;;;4984624;28;20049;-45
2023/05/27 06:47:14;;;;;;;8.20;3.85;;;;;;;;;;4977451;28;20053;-47
2023/05/27 06:49:39;;;;;;;10.10;3.40;;;;;;;;;;4982508;28;20105;-52
2023/05/27 06:52:05;;;;;;;9.43;3.58;;;;;;;;;;4984136;28;20069;-50
2023/05/27 06:54:30;;;;;;;12.82;3.97;;;;;;;;;;4984472;28;20048;-50
2023/05/27 06:56:56;;;;;;;6.25;3.63;;;;;;;;;;4985548;28;20114;-46
2023/05/27 06:59:22;;;;;;;11.43;4.18;;;;;;;;;;4983169;28;20038;-49
2023/05/27 07:01:47;;;;;;;9.85;4.28;;;;;;;;;;4985542;28;20539;-44
2023/05/27 07:04:13;;;;;;;8.40;4.03;;;;;;;;;;4988240;28;20037;-45
2023/05/27 07:06:38;;;;;;;6.35;4.00;;;;;;;;;;4982657;28;20105;-50
2023/05/27 07:09:04;;;;;;;10.93;4.05;;;;;;;;;;4986107;28;20017;-48
2023/05/27 07:11:29;;;;;;;6.97;4.20;;;;;;;;;;4974245;28;20174;-49
2023/05/27 07:13:55;;;;;;;9.38;4.00;;;;;;;;;;4977569;28;20038;-49
2023/05/27 07:16:20;;;;;;;7.13;4.00;;;;;;;;;;4982804;28;20102;-51
2023/05/27 07:18:45;;;;;;;17.58;3.95;;;;;;;;;;4983198;28;20101;-50
2023/05/27 07:21:11;;;;;;;7.25;3.95;;;;;;;;;;4981123;28;20039;-45
2023/05/27 07:23:36;;;;;;;8.73;3.72;;;;;;;;;;4982540;28;20468;-47
2023/05/27 07:26:01;;;;;;;6.93;3.80;;;;;;;;;;4982116;28;20046;-44
2023/05/27 07:28:27;;;;;;;8.93;4.57;;;;;;;;;;4987336;28;20402;-47
2023/05/27 07:30:52;;;;;;;16.00;4.25;;;;;;;;;;4978925;28;20057;-46
2023/05/27 07:33:18;;;;;;;10.27;4.35;;;;;;;;;;4980873;28;20034;-47
2023/05/27 07:35:43;;;;;;;6.63;4.22;;;;;;;;;;4984700;28;20038;-49
2023/05/27 07:38:09;;;;;;;10.45;3.95;;;;;;;;;;4981023;28;20055;-52
2023/05/27 07:40:35;;;;;;;11.02;4.30;;;;;;;;;;4978649;28;20034;-46
2023/05/27 07:43:01;;;;;;;8.95;4.45;;;;;;;;;;4977447;28;20088;-47
2023/05/27 07:45:26;;;;;;;8.93;5.03;;;;;;;;;;4984102;28;20034;-46
2023/05/27 07:47:51;;;;;;;9.88;5.05;;;;;;;;;;4985696;28;20045;-50
2023/05/27 07:50:17;;;;;;;12.75;5.45;;;;;;;;;;4981555;28;20057;-48
2023/05/27 07:52:42;;;;;;;17.92;5.13;;;;;;;;;;4982552;28;20125;-51
2023/05/27 07:55:08;;;;;;;22.50;5.88;;;;;;;;;;4981046;28;20034;-50
2023/05/27 07:57:33;;;;;;;17.60;6.05;;;;;;;;;;4981738;28;20053;-49
2023/05/27 07:59:59;;;;;;;12.40;6.30;;;;;;;;;;4985443;28;20035;-49
2023/05/27 08:02:25;;;;;;;12.82;6.50;;;;;;;;;;4984730;28;20435;-48
2023/05/27 08:04:51;;;;;;;9.18;5.95;;;;;;;;;;4987195;28;20026;-47
2023/05/27 08:07:17;;;;;;;11.48;6.50;;;;;;;;;;4981775;28;20490;-51
2023/05/27 08:09:42;;;;;;;9.85;6.63;;;;;;;;;;4984412;28;20030;-51
2023/05/27 08:12:08;;;;;;;13.82;7.35;;;;;;;;;;4981305;28;20035;-52
2023/05/27 08:14:34;;;;;;;18.10;6.57;;;;;;;;;;4981757;28;20029;-45
2023/05/27 08:17:00;;;;;;;18.88;7.57;;;;;;;;;;4982601;28;20140;-47
2023/05/27 08:19:25;;;;;;;15.90;7.32;;;;;;;;;;4983207;28;20122;-48
2023/05/27 08:21:50;;;;;;;18.17;7.18;;;;;;;;;;4979579;28;20046;-50
2023/05/27 08:24:17;;;;;;;13.57;6.68;;;;;;;;;;4979650;28;20044;-48
2023/05/27 08:26:42;;;;;;;10.77;6.93;;;;;;;;;;4984089;28;20041;-47
2023/05/27 08:29:07;;;;;;;11.23;6.43;;;;;;;;;;4980197;28;20498;-48
2023/05/27 08:31:33;;;;;;;16.63;6.80;;;;;;;;;;4983537;28;20579;-46
2023/05/27 08:33:59;;;;;;;12.80;7.00;;;;;;;;;;4982454;28;20031;-49
2023/05/27 08:36:24;;;;;;;15.77;6.28;;;;;;;;;;4982865;28;20031;-50
2023/05/27 08:38:50;;;;;;;13.20;7.53;;;;;;;;;;4973964;28;20031;-52
2023/05/27 08:41:15;;;;;;;16.90;7.30;;;;;;;;;;4975995;28;20043;-48
2023/05/27 08:43:42;;;;;;;11.00;6.57;;;;;;;;;;4978989;28;20435;-44
2023/05/27 08:46:08;;;;;;;11.38;6.15;;;;;;;;;;4985574;28;20537;-45
2023/05/27 08:48:33;;;;;;;10.77;6.32;;;;;;;;;;4981795;28;20034;-49
2023/05/27 08:51:00;;;;;;;17.98;6.28;;;;;;;;;;4983801;28;20034;-44
2023/05/27 08:53:26;;;;;;;18.25;6.35;;;;;;;;;;4981823;28;20364;-51
2023/05/27 08:55:54;;;;;;;11.13;6.03;;;;;;;;;;4978736;28;20237;-50
2023/05/27 08:58:20;;;;;;;14.82;5.53;;;;;;;;;;4979967;28;20026;-43
2023/05/27 09:00:45;;;;;;;13.27;5.82;;;;;;;;;;4982816;28;20620;-46
2023/05/27 09:03:11;;;;;;;9.75;5.55;;;;;;;;;;4988509;28;20057;-48
2023/05/27 09:05:37;;;;;;;10.38;5.03;;;;;;;;;;4984228;28;20046;-45
2023/05/27 09:08:02;;;;;;;11.18;4.80;;;;;;;;;;4983208;28;20388;-49
2023/05/27 09:10:37;;;;;;;13.48;5.78;;;;;;;;;;4983637;28;20169;-46
2023/05/27 09:13:03;;;;;;;20.05;5.53;;;;;;;;;;4978704;28;20093;-46
2023/05/27 09:15:31;;;;;;;13.77;5.18;;;;;;;;;;4982481;28;20034;-45
2023/05/27 09:17:57;;;;;;;14.32;6.15;;;;;;;;;;4987425;28;20060;-47
2023/05/27 09:20:26;;;;;;;10.07;5.07;;;;;;;;;;4982430;28;20034;-45
2023/05/27 09:23:00;;;;;;;14.68;5.75;;;;;;;;;;4986202;28;20923;-52
2023/05/27 09:25:27;;;;;;;13.70;5.65;;;;;;;;;;4986655;28;20089;-46
2023/05/27 09:27:53;;;;;;;7.70;5.00;;;;;;;;;;4985094;28;20081;-48
2023/05/27 09:30:22;;;;;;;12.55;5.18;;;;;;;;;;4983671;28;20026;-44
2023/05/27 09:32:48;;;;;;;9.98;4.88;;;;;;;;;;4982399;28;20822;-50
2023/05/27 09:35:16;;;;;;;12.00;4.80;;;;;;;;;;4988188;28;20180;-45
2023/05/27 09:37:43;;;;;;;10.48;4.93;;;;;;;;;;4984725;28;20081;-49
2023/05/27 09:40:10;;;;;;;9.00;4.53;;;;;;;;;;4987525;28;20093;-50
2023/05/27 09:42:41;;;;;;;10.73;4.68;;;;;;;;;;4985868;28;20075;-52
2023/05/27 09:45:12;;;;;;;7.50;4.40;;;;;;;;;;4981002;28;20031;-49
2023/05/27 09:47:47;;;;;;;8.32;4.65;;;;;;;;;;4982016;28;20104;-51
2023/05/27 09:50:15;;;;;;;11.25;4.97;;;;;;;;;;4987041;28;20022;-52
2023/05/27 09:52:41;;;;;;;14.48;5.43;;;;;;;;;;4985125;28;20038;-51
2023/05/27 09:55:09;;;;;;;13.10;4.93;;;;;;;;;;4983659;28;20386;-50
2023/05/27 09:57:35;;;;;;;12.80;5.47;;;;;;;;;;4983457;28;20038;-47
2023/05/27 10:00:07;;;;;;;12.10;4.88;;;;;;;;;;4986277;28;20030;-49
2023/05/27 10:02:35;;;;;;;13.88;5.22;;;;;;;;;;4983217;28;20046;-45
2023/05/27 10:05:02;;;;;;;7.35;5.03;;;;;;;;;;4990487;28;20610;-47
2023/05/27 10:07:28;;;;;;;8.88;5.32;;;;;;;;;;4984638;28;20098;-46
2023/05/27 10:09:54;;;;;;;17.52;5.10;;;;;;;;;;4986312;28;20031;-43
2023/05/27 10:12:20;;;;;;;10.73;4.97;;;;;;;;;;4986713;28;20042;-43
2023/05/27 10:14:47;;;;;;;11.77;5.20;;;;;;;;;;4982467;28;20060;-49
2023/05/27 10:17:13;;;;;;;9.38;4.82;;;;;;;;;;4981853;28;20499;-47
2023/05/27 10:19:50;;;;;;;6.22;4.43;;;;;;;;;;4983512;28;20030;-46
2023/05/27 10:22:15;;;;;;;11.27;4.22;;;;;;;;;;4986336;28;20046;-45
2023/05/27 10:24:40;;;;;;;5.97;4.40;;;;;;;;;;4985962;28;20045;-44
2023/05/27 10:27:06;;;;;;;6.25;4.25;;;;;;;;;;4985583;28;20049;-45
2023/05/27 10:29:38;;;;;;;6.43;3.97;;;;;;;;;;4985183;28;20019;-43
2023/05/27 10:32:04;;;;;;;11.50;5.05;;;;;;;;;;4984789;28;20042;-44
2023/05/27 10:34:36;;;;;;;6.55;4.47;;;;;;;;;;4984594;28;20029;-44
2023/05/27 10:37:02;;;;;;;6.68;4.20;;;;;;;;;;4981418;28;20085;-48
2023/05/27 10:39:27;;;;;;;4.90;4.00;;;;;;;;;;4987262;28;20034;-46
2023/05/27 10:41:54;;;;;;;9.25;4.22;;;;;;;;;;4984490;28;20034;-45
2023/05/27 10:44:30;;;;;;;7.32;4.57;;;;;;;;;;4986667;28;20058;-46
2023/05/27 10:47:10;;;;;;;11.77;4.35;;;;;;;;;;4982672;28;20127;-44
2023/05/27 10:49:38;;;;;;;7.07;4.20;;;;;;;;;;4985122;28;20026;-44
2023/05/27 10:52:12;;;;;;;7.72;4.13;;;;;;;;;;4982076;28;20122;-43
2023/05/27 10:54:46;;;;;;;6.57;4.18;;;;;;;;;;4982896;28;20030;-47
2023/05/27 10:57:12;;;;;;;7.10;4.00;;;;;;;;;;4984713;28;20046;-48
2023/05/27 10:59:57;;;;;;;6.10;4.13;;;;;;;;;;4985162;28;20041;-49
2023/05/27 11:02:24;;;;;;;6.85;4.10;;;;;;;;;;4982999;28;20042;-44
2023/05/27 11:04:50;;;;;;;5.57;4.05;;;;;;;;;;4988289;28;20395;-43
2023/05/27 11:07:19;;;;;;;5.70;3.83;;;;;;;;;;4984467;28;20043;-45
2023/05/27 11:09:45;;;;;;;6.82;3.90;;;;;;;;;;4984443;28;20467;-47
2023/05/27 11:12:16;;;;;;;7.70;3.80;;;;;;;;;;4982894;28;20054;-44
2023/05/27 11:14:42;;;;;;;10.68;3.45;;;;;;;;;;4986796;28;20456;-47
2023/05/27 11:17:15;;;;;;;7.72;4.13;;;;;;;;;;4980915;28;20109;-44
2023/05/27 11:19:41;;;;;;;8.48;3.97;;;;;;;;;;4979932;28;20452;-44
2023/05/27 11:22:08;;;;;;;5.65;3.75;;;;;;;;;;4984908;28;20054;-44
2023/05/27 11:24:33;;;;;;;6.05;3.63;;;;;;;;;;4982624;28;20081;-44
2023/05/27 11:26:58;;;;;;;6.25;3.72;;;;;;;;;;4981453;28;20074;-44
2023/05/27 11:29:24;;;;;;;8.95;3.78;;;;;;;;;;4979144;28;20042;-45
2023/05/27 11:31:50;;;;;;;7.53;3.65;;;;;;;;;;4982369;28;20617;-45
2023/05/27 11:34:18;;;;;;;7.93;4.15;;;;;;;;;;4989366;28;20502;-50
2023/05/27 11:36:45;;;;;;;11.23;3.95;;;;;;;;;;4984797;28;20039;-43
2023/05/27 11:39:16;;;;;;;6.60;3.67;;;;;;;;;;4983806;28;20022;-44
2023/05/27 11:41:52;;;;;;;9.10;4.07;;;;;;;;;;4978768;28;20468;-47
2023/05/27 11:44:19;;;;;;;10.38;3.78;;;;;;;;;;4981046;28;20046;-46
2023/05/27 11:46:46;;;;;;;8.18;3.80;;;;;;;;;;4981579;28;20038;-45
2023/05/27 11:49:14;;;;;;;8.05;4.60;;;;;;;;;;4981425;28;20037;-45
2023/05/27 11:51:45;;;;;;;8.20;3.40;;;;;;;;;;4983852;28;20093;-45
2023/05/27 11:54:22;;;;;;;11.67;7.33;;;;;;;;;;4980109;28;20522;-43
2023/05/27 11:56:48;;;;;;;9.52;4.05;;;;;;;;;;4981900;28;20461;-45
2023/05/27 11:59:14;;;;;;;4.32;3.55;;;;;;;;;;4982042;28;20041;-44
2023/05/27 12:01:40;;;;;;;6.75;3.67;;;;;;;;;;4983783;28;20031;-45
2023/05/27 12:04:06;;;;;;;6.00;3.88;;;;;;;;;;4983876;28;20034;-44
2023/05/27 12:06:31;;;;;;;6.47;3.67;;;;;;;;;;4981809;28;20062;-46
2023/05/27 12:08:57;;;;;;;8.02;4.00;;;;;;;;;;4982769;28;20029;-43
2023/05/27 12:11:22;;;;;;;7.50;3.50;;;;;;;;;;4982890;28;20272;-43
2023/05/27 12:13:48;;;;;;;11.02;3.92;;;;;;;;;;4985220;28;20022;-45
2023/05/27 12:16:13;;;;;;;9.77;4.03;;;;;;;;;;4972777;28;20066;-44
2023/05/27 12:18:41;;;;;;;4.00;3.25;;;;;;;;;;4982038;28;20030;-45
2023/05/27 12:21:07;;;;;;;5.53;3.55;;;;;;;;;;4982028;28;20072;-44
2023/05/27 12:23:32;;;;;;;7.35;4.47;;;;;;;;;;4987250;28;20018;-44
2023/05/27 12:25:58;;;;;;;5.65;4.47;;;;;;;;;;4982058;28;20750;-45
2023/05/27 12:28:23;;;;;;;8.15;4.32;;;;;;;;;;4984384;28;20096;-45
2023/05/27 12:30:49;;;;;;;9.25;4.60;;;;;;;;;;4980669;28;20046;-44
2023/05/27 12:33:14;;;;;;;7.47;4.28;;;;;;;;;;4981720;28;20035;-46
2023/05/27 12:35:40;;;;;;;6.78;4.53;;;;;;;;;;4988248;28;20570;-44
2023/05/27 12:38:06;;;;;;;6.13;4.35;;;;;;;;;;4981613;28;20088;-45
2023/05/27 12:40:32;;;;;;;5.30;3.78;;;;;;;;;;4984230;28;20026;-45
2023/05/27 12:42:58;;;;;;;6.03;3.78;;;;;;;;;;4980713;28;20031;-44
2023/05/27 12:45:25;;;;;;;5.70;3.88;;;;;;;;;;4980658;28;20057;-45
2023/05/27 12:47:54;;;;;;;7.72;3.90;;;;;;;;;;4984300;28;20507;-49
2023/05/27 12:50:21;;;;;;;9.55;4.00;;;;;;;;;;4981512;28;20030;-47
2023/05/27 12:52:49;;;;;;;8.35;4.07;;;;;;;;;;4979904;28;20125;-46
2023/05/27 12:55:19;;;;;;;5.03;3.90;;;;;;;;;;4980807;28;20031;-44
2023/05/27 12:57:47;;;;;;;4.95;4.13;;;;;;;;;;4982261;28;20027;-46
2023/05/27 13:00:13;;;;;;;6.70;4.45;;;;;;;;;;4984230;28;20503;-45
2023/05/27 13:02:38;;;;;;;8.05;5.15;;;;;;;;;;4986327;28;20042;-46
2023/05/27 13:05:05;;;;;;;7.32;4.68;;;;;;;;;;4986486;28;20042;-44
2023/05/27 13:07:31;;;;;;;10.05;4.47;;;;;;;;;;4980666;28;20042;-49
2023/05/27 13:09:56;;;;;;;5.50;4.00;;;;;;;;;;4983186;28;20030;-47
2023/05/27 13:12:22;;;;;;;4.80;3.88;;;;;;;;;;4980977;28;20053;-44
2023/05/27 13:14:48;;;;;;;8.40;4.75;;;;;;;;;;4983583;28;20250;-45
2023/05/27 13:17:13;;;;;;;9.57;4.40;;;;;;;;;;4976964;28;20058;-44
2023/05/27 13:19:39;;;;;;;6.35;3.90;;;;;;;;;;4987058;28;20037;-45
2023/05/27 13:22:05;;;;;;;8.35;4.60;;;;;;;;;;4980569;28;20622;-46
2023/05/27 13:24:30;;;;;;;5.68;3.78;;;;;;;;;;4980875;28;20029;-49
2023/05/27 13:26:55;;;;;;;7.13;4.03;;;;;;;;;;4986122;28;20034;-46
2023/05/27 13:29:21;;;;;;;6.18;4.22;;;;;;;;;;4981693;28;20503;-46
2023/05/27 13:31:46;;;;;;;9.13;3.70;;;;;;;;;;4981047;28;20038;-44
2023/05/27 13:34:12;;;;;;;11.57;4.63;;;;;;;;;;4984326;28;20109;-44
2023/05/27 13:36:37;;;;;;;7.60;4.38;;;;;;;;;;4979895;28;20048;-44
2023/05/27 13:39:03;;;;;;;12.70;4.90;;;;;;;;;;4983806;28;20671;-47
2023/05/27 13:41:28;;;;;;;13.00;4.35;;;;;;;;;;4981909;28;20042;-47
2023/05/27 13:43:54;;;;;;;6.68;4.47;;;;;;;;;;4980766;28;20033;-48
2023/05/27 13:46:20;;;;;;;11.15;4.50;;;;;;;;;;4983351;28;20038;-49
2023/05/27 13:48:45;;;;;;;6.47;3.88;;;;;;;;;;4980469;28;20041;-48
2023/05/27 13:51:10;;;;;;;5.60;4.35;;;;;;;;;;4982130;28;20042;-48
2023/05/27 13:53:36;;;;;;;6.85;4.25;;;;;;;;;;4984429;28;20037;-44
2023/05/27 13:56:01;;;;;;;5.88;4.15;;;;;;;;;;4982448;28;20113;-45
2023/05/27 13:58:28;;;;;;;11.02;4.22;;;;;;;;;;4981988;28;20035;-45
2023/05/27 14:00:53;;;;;;;4.70;4.00;;;;;;;;;;4982612;28;20427;-49
2023/05/27 14:03:21;;;;;;;7.18;4.60;;;;;;;;;;4985794;28;20029;-51
2023/05/27 14:05:46;;;;;;;6.95;4.50;;;;;;;;;;4988324;28;20054;-53
2023/05/27 14:08:11;;;;;;;6.43;4.10;;;;;;;;;;4983485;28;20065;-52
2023/05/27 14:10:37;;;;;;;6.95;4.05;;;;;;;;;;4983922;28;20080;-50
2023/05/27 14:13:02;;;;;;;8.73;4.55;;;;;;;;;;4983167;28;20056;-50
2023/05/27 14:15:29;;;;;;;9.05;4.30;;;;;;;;;;4979463;28;20034;-47
2023/05/27 14:17:55;;;;;;;8.07;4.55;;;;;;;;;;4984296;28;20044;-49
2023/05/27 14:20:20;;;;;;;9.38;4.18;;;;;;;;;;4984720;28;20373;-47
2023/05/27 14:22:46;;;;;;;7.05;3.92;;;;;;;;;;4986709;28;20029;-45
2023/05/27 14:25:12;;;;;;;9.35;4.15;;;;;;;;;;4983166;28;20045;-51
2023/05/27 14:27:37;;;;;;;10.15;5.18;;;;;;;;;;4987191;28;20042;-49
2023/05/27 14:30:04;;;;;;;11.65;4.75;;;;;;;;;;4987212;28;20030;-52